Time;durP1;ratioP1;P1;durP2;ratioP2;P2;SDS_P1;SDS_P2;PMS_P1;PMS_P2;Temp;Humidity;BMP_temperature;BMP_pressure;BME280_temperature;BME280_humidity;BME280_pressure;Samples;Min_cycle;Max_cycle;Signal;HPM_P1;HPM_P2
2021/11/03 00:00:41;;;;;;;6.35;3.60;;;;;;;;;;4988283;28;20061;-85
2021/11/03 00:03:08;;;;;;;4.40;2.90;;;;;;;;;;4985685;28;20491;-85
2021/11/03 00:05:34;;;;;;;9.15;3.92;;;;;;;;;;4975584;28;20130;-85
2021/11/03 00:08:01;;;;;;;5.70;3.50;;;;;;;;;;4973878;28;20022;-85
2021/11/03 00:10:27;;;;;;;4.57;3.00;;;;;;;;;;4974159;28;20034;-85
2021/11/03 00:12:53;;;;;;;5.47;3.55;;;;;;;;;;4974789;28;20105;-85
2021/11/03 00:15:19;;;;;;;4.18;3.15;;;;;;;;;;4983003;28;20031;-85
2021/11/03 00:17:45;;;;;;;5.32;3.13;;;;;;;;;;4988828;28;20109;-85
2021/11/03 00:20:12;;;;;;;6.47;3.33;;;;;;;;;;4973138;28;20035;-85
2021/11/03 00:22:38;;;;;;;3.92;2.72;;;;;;;;;;4981476;28;20022;-85
2021/11/03 00:25:05;;;;;;;5.38;2.85;;;;;;;;;;4992023;28;20038;-85
2021/11/03 00:27:31;;;;;;;5.72;2.20;;;;;;;;;;4970427;28;20130;-85
2021/11/03 00:29:57;;;;;;;5.05;3.05;;;;;;;;;;4966998;28;20550;-85
2021/11/03 00:32:23;;;;;;;4.32;2.85;;;;;;;;;;4988491;28;20117;-85
2021/11/03 00:34:49;;;;;;;3.60;2.60;;;;;;;;;;4973648;28;20011;-85
2021/11/03 00:37:16;;;;;;;3.35;2.30;;;;;;;;;;4989643;28;20046;-85
2021/11/03 00:39:43;;;;;;;4.97;3.10;;;;;;;;;;4974020;28;20092;-85
2021/11/03 00:42:09;;;;;;;5.72;3.33;;;;;;;;;;4989144;28;20061;-85
2021/11/03 00:44:35;;;;;;;6.85;3.55;;;;;;;;;;4978814;28;20561;-85
2021/11/03 00:47:01;;;;;;;7.75;4.00;;;;;;;;;;4981114;28;20129;-85
2021/11/03 00:49:27;;;;;;;8.15;5.05;;;;;;;;;;4988509;28;20037;-85
2021/11/03 00:51:53;;;;;;;9.48;5.22;;;;;;;;;;4985984;28;20065;-84
2021/11/03 00:54:19;;;;;;;8.07;4.28;;;;;;;;;;4986278;28;20109;-85
2021/11/03 00:56:49;;;;;;;6.35;3.88;;;;;;;;;;4986878;28;20086;-85
2021/11/03 00:59:15;;;;;;;8.60;5.03;;;;;;;;;;4990882;28;20025;-85
2021/11/03 01:01:41;;;;;;;8.60;4.80;;;;;;;;;;4977113;28;20034;-84
2021/11/03 01:04:07;;;;;;;11.18;4.90;;;;;;;;;;4993083;28;20049;-85
2021/11/03 01:06:34;;;;;;;9.27;4.40;;;;;;;;;;4990751;28;20479;-85
2021/11/03 01:09:01;;;;;;;9.43;5.05;;;;;;;;;;4989387;28;20126;-85
2021/11/03 01:11:27;;;;;;;8.65;4.50;;;;;;;;;;4991563;28;20030;-85
2021/11/03 01:13:53;;;;;;;6.45;3.28;;;;;;;;;;4978674;28;20034;-85
2021/11/03 01:16:19;;;;;;;9.15;4.60;;;;;;;;;;4978686;28;20973;-85
2021/11/03 01:18:45;;;;;;;12.98;5.65;;;;;;;;;;4977331;28;20018;-84
2021/11/03 01:21:11;;;;;;;14.30;5.97;;;;;;;;;;4977996;28;20466;-85
2021/11/03 01:23:37;;;;;;;13.48;6.38;;;;;;;;;;4991469;28;20121;-85
2021/11/03 01:26:04;;;;;;;14.52;5.65;;;;;;;;;;4983655;28;20038;-85
2021/11/03 01:28:30;;;;;;;9.40;4.65;;;;;;;;;;4995714;28;20046;-85
2021/11/03 01:30:56;;;;;;;9.50;4.75;;;;;;;;;;4990700;28;20089;-85
2021/11/03 01:33:22;;;;;;;10.93;4.60;;;;;;;;;;4977931;28;20486;-85
2021/11/03 01:35:48;;;;;;;6.25;3.53;;;;;;;;;;4999177;28;20505;-85
2021/11/03 01:38:14;;;;;;;6.78;3.95;;;;;;;;;;4990752;28;20054;-85
2021/11/03 01:40:42;;;;;;;9.98;4.40;;;;;;;;;;4992330;28;20433;-85
2021/11/03 01:43:08;;;;;;;9.82;4.43;;;;;;;;;;4996365;28;20554;-85
2021/11/03 01:45:35;;;;;;;11.68;4.03;;;;;;;;;;4988653;28;20030;-85
2021/11/03 01:48:02;;;;;;;10.57;4.80;;;;;;;;;;4974229;28;20120;-85
2021/11/03 01:50:32;;;;;;;13.38;6.03;;;;;;;;;;4988675;28;20027;-85
2021/11/03 01:53:21;;;;;;;16.63;7.65;;;;;;;;;;4973949;28;20142;-85
2021/11/03 01:56:07;;;;;;;16.02;7.03;;;;;;;;;;4993103;28;20487;-85
2021/11/03 01:58:55;;;;;;;20.33;8.15;;;;;;;;;;4973767;28;20389;-84
2021/11/03 02:01:22;;;;;;;15.88;7.38;;;;;;;;;;4969459;28;20077;-85
2021/11/03 02:03:49;;;;;;;18.27;7.70;;;;;;;;;;4978047;28;20125;-85
2021/11/03 02:06:19;;;;;;;20.27;7.55;;;;;;;;;;4976040;28;20037;-85
2021/11/03 02:08:46;;;;;;;15.38;7.18;;;;;;;;;;4992892;28;20117;-85
2021/11/03 02:11:12;;;;;;;11.50;5.70;;;;;;;;;;4992843;28;20026;-85
2021/11/03 02:13:39;;;;;;;14.57;5.70;;;;;;;;;;4975267;28;20034;-85
2021/11/03 02:16:07;;;;;;;13.15;5.35;;;;;;;;;;4979380;28;20069;-85
2021/11/03 02:18:34;;;;;;;10.40;5.43;;;;;;;;;;4992656;28;20030;-85
2021/11/03 02:21:01;;;;;;;17.23;6.78;;;;;;;;;;4982464;28;20062;-85
2021/11/03 02:23:39;;;;;;;19.75;8.18;;;;;;;;;;4979824;28;20133;-85
2021/11/03 02:26:11;;;;;;;15.35;6.57;;;;;;;;;;4980487;28;20538;-85
2021/11/03 02:28:38;;;;;;;17.13;6.70;;;;;;;;;;4990527;28;20065;-85
2021/11/03 02:31:04;;;;;;;21.25;8.98;;;;;;;;;;4989845;28;20113;-85
2021/11/03 02:33:30;;;;;;;19.92;8.73;;;;;;;;;;4975095;28;20065;-84
2021/11/03 02:35:58;;;;;;;14.38;7.15;;;;;;;;;;4988848;28;20030;-85
2021/11/03 02:38:35;;;;;;;12.20;6.57;;;;;;;;;;4986454;28;20053;-85
2021/11/03 02:41:07;;;;;;;12.13;6.15;;;;;;;;;;4991266;28;20042;-85
2021/11/03 02:43:42;;;;;;;9.68;4.97;;;;;;;;;;4982953;28;20030;-85
2021/11/03 02:46:08;;;;;;;15.18;6.47;;;;;;;;;;4991846;28;20509;-85
2021/11/03 02:48:35;;;;;;;13.75;6.18;;;;;;;;;;4991075;28;20058;-85
2021/11/03 02:51:07;;;;;;;11.07;5.55;;;;;;;;;;4988109;28;20114;-85
2021/11/03 02:53:34;;;;;;;11.65;6.07;;;;;;;;;;4988548;28;20034;-85
2021/11/03 02:56:00;;;;;;;12.35;5.45;;;;;;;;;;4986880;28;20026;-85
2021/11/03 02:58:26;;;;;;;11.25;6.60;;;;;;;;;;4986424;28;20109;-85
2021/11/03 03:00:53;;;;;;;13.52;6.95;;;;;;;;;;4987987;28;20021;-85
2021/11/03 03:03:19;;;;;;;11.90;5.93;;;;;;;;;;4995734;28;20034;-85
2021/11/03 03:05:49;;;;;;;12.02;5.10;;;;;;;;;;4996169;28;20040;-85
2021/11/03 03:08:15;;;;;;;9.80;5.10;;;;;;;;;;4977026;28;20121;-85
2021/11/03 03:10:41;;;;;;;8.93;4.57;;;;;;;;;;4975307;28;20117;-85
2021/11/03 03:13:07;;;;;;;7.78;4.07;;;;;;;;;;4977113;28;20027;-85
2021/11/03 03:15:33;;;;;;;9.55;5.53;;;;;;;;;;4994960;28;20155;-85
2021/11/03 03:17:59;;;;;;;10.23;5.95;;;;;;;;;;4974279;28;20102;-85
2021/11/03 03:20:25;;;;;;;11.80;5.90;;;;;;;;;;4991803;28;20049;-85
2021/11/03 03:22:51;;;;;;;14.05;5.95;;;;;;;;;;4971525;28;20054;-85
2021/11/03 03:25:17;;;;;;;11.32;5.05;;;;;;;;;;4971723;28;20122;-85
2021/11/03 03:27:43;;;;;;;15.15;6.00;;;;;;;;;;4987263;28;20149;-85
2021/11/03 03:30:09;;;;;;;10.50;5.13;;;;;;;;;;4990921;28;20185;-85
2021/11/03 03:32:36;;;;;;;11.40;5.32;;;;;;;;;;4976729;28;20650;-85
2021/11/03 03:35:02;;;;;;;9.15;4.20;;;;;;;;;;4971730;28;20041;-85
2021/11/03 03:37:28;;;;;;;11.38;4.97;;;;;;;;;;4992002;28;20023;-85
2021/11/03 03:39:54;;;;;;;11.20;5.28;;;;;;;;;;4972782;28;20069;-85
2021/11/03 03:42:20;;;;;;;7.28;4.35;;;;;;;;;;4991341;28;20452;-85
2021/11/03 03:44:47;;;;;;;8.43;4.35;;;;;;;;;;4990078;28;20061;-85
2021/11/03 03:47:13;;;;;;;8.93;4.65;;;;;;;;;;4974688;28;20641;-85
2021/11/03 03:49:39;;;;;;;6.53;3.97;;;;;;;;;;4972504;28;20030;-85
2021/11/03 03:52:05;;;;;;;7.53;4.10;;;;;;;;;;4978229;28;20034;-85
2021/11/03 03:54:31;;;;;;;10.05;5.22;;;;;;;;;;4984659;28;20026;-84
2021/11/03 03:56:57;;;;;;;8.50;4.32;;;;;;;;;;4990991;28;20029;-84
2021/11/03 03:59:23;;;;;;;9.75;5.03;;;;;;;;;;4990677;28;20054;-85
2021/11/03 04:01:50;;;;;;;7.38;4.88;;;;;;;;;;4977210;28;20474;-85
2021/11/03 04:04:16;;;;;;;7.90;4.43;;;;;;;;;;4973570;28;20781;-85
2021/11/03 04:06:42;;;;;;;7.43;4.30;;;;;;;;;;4988609;28;20113;-85
2021/11/03 04:09:09;;;;;;;7.63;4.13;;;;;;;;;;4987573;28;20094;-85
2021/11/03 04:11:35;;;;;;;7.22;4.13;;;;;;;;;;4975017;28;20039;-85
2021/11/03 04:14:01;;;;;;;7.78;4.53;;;;;;;;;;4987441;28;20039;-85
2021/11/03 04:16:27;;;;;;;9.23;5.13;;;;;;;;;;4969101;28;20383;-84
2021/11/03 04:18:53;;;;;;;7.00;4.40;;;;;;;;;;4990720;28;20023;-84
2021/11/03 04:21:19;;;;;;;7.75;4.43;;;;;;;;;;4976919;28;20027;-85
2021/11/03 04:23:45;;;;;;;9.93;5.57;;;;;;;;;;4982400;28;20114;-85
2021/11/03 04:26:19;;;;;;;12.25;6.45;;;;;;;;;;4984593;28;20130;-84
2021/11/03 04:28:45;;;;;;;12.77;5.45;;;;;;;;;;4986394;28;20030;-84
2021/11/03 04:31:11;;;;;;;9.32;5.13;;;;;;;;;;4983628;28;20466;-84
2021/11/03 04:33:39;;;;;;;8.82;5.05;;;;;;;;;;4971308;28;20072;-85
2021/11/03 04:36:06;;;;;;;8.18;4.85;;;;;;;;;;4980970;28;20504;-84
2021/11/03 04:38:32;;;;;;;10.82;4.63;;;;;;;;;;4990477;28;20026;-84
2021/11/03 04:40:58;;;;;;;8.43;4.72;;;;;;;;;;4988046;28;20038;-84
2021/11/03 04:43:24;;;;;;;7.30;4.32;;;;;;;;;;4981620;28;20114;-85
2021/11/03 04:45:50;;;;;;;7.75;4.72;;;;;;;;;;4986460;28;20022;-83
2021/11/03 04:48:16;;;;;;;8.65;4.85;;;;;;;;;;4994160;28;20422;-83
2021/11/03 04:50:42;;;;;;;8.35;4.93;;;;;;;;;;4991312;28;20031;-84
2021/11/03 04:53:08;;;;;;;8.05;4.43;;;;;;;;;;4990848;28;20039;-84
2021/11/03 04:55:34;;;;;;;7.45;4.50;;;;;;;;;;4993017;28;20031;-85
2021/11/03 04:58:00;;;;;;;6.45;3.67;;;;;;;;;;4993783;28;20018;-85
2021/11/03 05:00:27;;;;;;;7.55;4.15;;;;;;;;;;4982487;28;20467;-85
2021/11/03 05:02:54;;;;;;;7.80;5.28;;;;;;;;;;4984275;28;20097;-83
2021/11/03 05:05:20;;;;;;;9.23;5.20;;;;;;;;;;4990610;28;20119;-83
2021/11/03 05:07:47;;;;;;;11.05;5.68;;;;;;;;;;4993126;28;20040;-85
2021/11/03 05:10:13;;;;;;;8.85;4.53;;;;;;;;;;4986789;28;20027;-84
2021/11/03 05:12:39;;;;;;;9.85;5.20;;;;;;;;;;4973785;28;20482;-84
2021/11/03 05:15:06;;;;;;;13.55;5.03;;;;;;;;;;4977299;28;20058;-83
2021/11/03 05:17:32;;;;;;;7.78;4.20;;;;;;;;;;4970390;28;20360;-85
2021/11/03 05:19:58;;;;;;;9.05;5.05;;;;;;;;;;4988184;28;20034;-84
2021/11/03 05:22:25;;;;;;;8.85;4.97;;;;;;;;;;4992313;28;20034;-85
2021/11/03 05:24:52;;;;;;;10.95;5.82;;;;;;;;;;4990756;28;20387;-84
2021/11/03 05:27:18;;;;;;;11.25;5.78;;;;;;;;;;4982312;28;20046;-84
2021/11/03 05:29:44;;;;;;;16.95;6.50;;;;;;;;;;4997653;28;20122;-84
2021/11/03 05:32:10;;;;;;;12.98;5.78;;;;;;;;;;4987183;28;20080;-85
2021/11/03 05:34:36;;;;;;;15.52;6.60;;;;;;;;;;4985737;28;20026;-84
2021/11/03 05:37:03;;;;;;;12.30;6.13;;;;;;;;;;4977837;28;20019;-83
2021/11/03 05:39:29;;;;;;;10.73;5.88;;;;;;;;;;4983386;28;20040;-83
2021/11/03 05:41:55;;;;;;;10.73;5.90;;;;;;;;;;4986824;28;20454;-85
2021/11/03 05:44:21;;;;;;;12.10;5.93;;;;;;;;;;4991174;28;20054;-83
2021/11/03 05:46:55;;;;;;;12.27;5.93;;;;;;;;;;4977477;28;20121;-84
2021/11/03 05:49:25;;;;;;;14.18;5.70;;;;;;;;;;4991223;28;20132;-84
2021/11/03 05:51:51;;;;;;;9.15;4.90;;;;;;;;;;4976788;28;20077;-84
2021/11/03 05:54:18;;;;;;;11.57;5.55;;;;;;;;;;4991304;28;20125;-84
2021/11/03 05:56:45;;;;;;;12.80;4.85;;;;;;;;;;4985282;28;20085;-85
2021/11/03 05:59:11;;;;;;;11.05;5.82;;;;;;;;;;4976415;28;20069;-85
2021/11/03 06:01:38;;;;;;;8.75;5.07;;;;;;;;;;4996422;28;20486;-83
2021/11/03 06:04:04;;;;;;;10.75;6.25;;;;;;;;;;4991388;28;20048;-84
2021/11/03 06:06:30;;;;;;;11.07;5.43;;;;;;;;;;4990835;28;20113;-84
2021/11/03 06:08:56;;;;;;;9.82;5.07;;;;;;;;;;4975885;28;20546;-84
2021/11/03 06:11:23;;;;;;;8.13;5.22;;;;;;;;;;4986747;28;20124;-85
2021/11/03 06:13:49;;;;;;;8.27;5.45;;;;;;;;;;4980243;28;20508;-85
2021/11/03 06:16:15;;;;;;;8.23;4.78;;;;;;;;;;4988674;28;20157;-84
2021/11/03 06:18:41;;;;;;;10.50;5.50;;;;;;;;;;4985298;28;20022;-83
2021/11/03 06:21:07;;;;;;;7.13;4.25;;;;;;;;;;4993299;28;20120;-84
2021/11/03 06:23:33;;;;;;;9.32;4.60;;;;;;;;;;4991465;28;20030;-86
2021/11/03 06:26:00;;;;;;;9.77;4.93;;;;;;;;;;4987950;28;20089;-85
2021/11/03 06:28:26;;;;;;;8.90;5.00;;;;;;;;;;4968033;28;20047;-85
2021/11/03 06:30:52;;;;;;;7.95;4.68;;;;;;;;;;4988111;28;20057;-84
2021/11/03 06:33:18;;;;;;;9.88;5.28;;;;;;;;;;4987410;28;20027;-84
2021/11/03 06:35:45;;;;;;;12.80;5.68;;;;;;;;;;4982975;28;20027;-84
2021/11/03 06:38:13;;;;;;;7.78;4.95;;;;;;;;;;4971902;28;20089;-84
2021/11/03 06:40:41;;;;;;;9.25;5.72;;;;;;;;;;4963608;28;20352;-85
2021/11/03 06:43:07;;;;;;;9.43;4.70;;;;;;;;;;4983277;28;20030;-84
2021/11/03 06:45:33;;;;;;;10.82;5.53;;;;;;;;;;4987079;28;20023;-85
2021/11/03 06:47:59;;;;;;;10.07;5.70;;;;;;;;;;4970459;28;20023;-84
2021/11/03 06:50:27;;;;;;;10.57;4.97;;;;;;;;;;4971743;28;20023;-84
2021/11/03 06:52:53;;;;;;;9.75;5.97;;;;;;;;;;4961386;28;20049;-84
2021/11/03 06:55:20;;;;;;;13.40;6.55;;;;;;;;;;4970759;28;20023;-84
2021/11/03 06:57:46;;;;;;;11.70;6.25;;;;;;;;;;4985137;28;20402;-84
2021/11/03 07:00:14;;;;;;;11.68;7.07;;;;;;;;;;4967260;28;20200;-84
2021/11/03 07:02:40;;;;;;;11.30;6.05;;;;;;;;;;4995724;28;20499;-85
2021/11/03 07:05:06;;;;;;;11.25;6.40;;;;;;;;;;4969778;28;20462;-78
2021/11/03 07:07:32;;;;;;;11.32;6.50;;;;;;;;;;4988251;28;20476;-78
2021/11/03 07:09:59;;;;;;;12.40;6.78;;;;;;;;;;4960994;28;20118;-79
2021/11/03 07:12:26;;;;;;;14.45;7.05;;;;;;;;;;4985667;28;20376;-85
2021/11/03 07:14:52;;;;;;;12.93;7.28;;;;;;;;;;4985369;28;20041;-84
2021/11/03 07:17:18;;;;;;;11.85;6.97;;;;;;;;;;4969359;28;20167;-84
2021/11/03 07:19:44;;;;;;;15.00;8.85;;;;;;;;;;4970800;28;20031;-85
2021/11/03 07:22:10;;;;;;;13.50;8.25;;;;;;;;;;4985007;28;20435;-85
2021/11/03 07:24:36;;;;;;;11.30;6.63;;;;;;;;;;4983946;28;20031;-85
2021/11/03 07:27:03;;;;;;;10.57;6.35;;;;;;;;;;4980918;28;20410;-85
2021/11/03 07:29:29;;;;;;;10.13;5.85;;;;;;;;;;4965609;28;20041;-85
2021/11/03 07:31:55;;;;;;;11.93;6.47;;;;;;;;;;4983253;28;20028;-84
2021/11/03 07:34:21;;;;;;;13.65;7.70;;;;;;;;;;4984083;28;20042;-84
2021/11/03 07:36:49;;;;;;;10.50;6.72;;;;;;;;;;4984615;28;20027;-83
2021/11/03 07:39:15;;;;;;;10.80;6.82;;;;;;;;;;4977860;28;20027;-84
2021/11/03 07:41:41;;;;;;;14.00;8.05;;;;;;;;;;4968915;28;20037;-84
2021/11/03 07:44:07;;;;;;;11.75;6.07;;;;;;;;;;4971749;28;20034;-84
2021/11/03 07:46:34;;;;;;;8.57;5.70;;;;;;;;;;4987714;28;20035;-84
2021/11/03 07:49:00;;;;;;;14.13;6.38;;;;;;;;;;4986847;28;20117;-84
2021/11/03 07:51:26;;;;;;;9.93;6.10;;;;;;;;;;4983619;28;20042;-84
2021/11/03 07:53:58;;;;;;;10.23;5.90;;;;;;;;;;4980339;28;20135;-84
2021/11/03 07:56:24;;;;;;;9.80;6.00;;;;;;;;;;4972313;28;20430;-84
2021/11/03 07:58:52;;;;;;;11.82;7.30;;;;;;;;;;4971011;28;20468;-85
2021/11/03 08:01:18;;;;;;;10.25;5.82;;;;;;;;;;4969648;28;20039;-85
2021/11/03 08:03:44;;;;;;;10.13;6.25;;;;;;;;;;4971146;28;20121;-85
2021/11/03 08:06:10;;;;;;;11.82;6.10;;;;;;;;;;4984379;28;20035;-85
2021/11/03 08:08:38;;;;;;;12.75;6.65;;;;;;;;;;4967330;28;20035;-85
2021/11/03 08:11:05;;;;;;;10.82;5.88;;;;;;;;;;4986585;28;20031;-85
2021/11/03 08:13:32;;;;;;;11.18;6.82;;;;;;;;;;4968883;28;20026;-84
2021/11/03 08:15:59;;;;;;;12.05;6.60;;;;;;;;;;4970109;28;20030;-84
2021/11/03 08:18:27;;;;;;;10.32;5.93;;;;;;;;;;4986801;28;20031;-84
2021/11/03 08:20:54;;;;;;;10.32;6.22;;;;;;;;;;4971496;28;20131;-85
2021/11/03 08:23:20;;;;;;;11.43;6.22;;;;;;;;;;4987093;28;20035;-84
2021/11/03 08:25:46;;;;;;;11.90;6.53;;;;;;;;;;4968271;28;20452;-85
2021/11/03 08:28:13;;;;;;;12.02;6.38;;;;;;;;;;4972733;28;20378;-85
2021/11/03 08:30:44;;;;;;;10.68;6.30;;;;;;;;;;4981702;28;20124;-85
2021/11/03 08:33:12;;;;;;;13.63;7.60;;;;;;;;;;4980387;28;20026;-85
2021/11/03 08:35:39;;;;;;;11.73;6.03;;;;;;;;;;4979168;28;20494;-85
2021/11/03 08:38:07;;;;;;;14.30;6.75;;;;;;;;;;4986966;28;20035;-84
2021/11/03 08:40:35;;;;;;;9.57;5.85;;;;;;;;;;4972920;28;20593;-84
2021/11/03 08:43:05;;;;;;;12.88;6.50;;;;;;;;;;4992073;28;20022;-85
2021/11/03 08:45:32;;;;;;;10.55;6.28;;;;;;;;;;4985975;28;20027;-84
2021/11/03 08:47:59;;;;;;;13.00;7.28;;;;;;;;;;4988944;28;20061;-82
2021/11/03 08:50:26;;;;;;;13.68;7.38;;;;;;;;;;4967238;28;20035;-84
2021/11/03 08:52:52;;;;;;;13.35;7.38;;;;;;;;;;4982905;28;20105;-84
2021/11/03 08:55:19;;;;;;;11.85;6.75;;;;;;;;;;4978158;28;20062;-83
2021/11/03 08:57:45;;;;;;;13.75;7.57;;;;;;;;;;4989534;28;20117;-84
2021/11/03 09:00:13;;;;;;;26.52;9.73;;;;;;;;;;4986531;28;20551;-85
2021/11/03 09:02:39;;;;;;;12.07;6.80;;;;;;;;;;4981517;28;20105;-85
2021/11/03 09:05:06;;;;;;;11.07;6.80;;;;;;;;;;4987102;28;20114;-83
2021/11/03 09:07:33;;;;;;;12.27;6.40;;;;;;;;;;4977671;28;20480;-85
2021/11/03 09:10:00;;;;;;;11.25;6.20;;;;;;;;;;4967818;28;20475;-85
2021/11/03 09:12:26;;;;;;;10.98;6.40;;;;;;;;;;4983678;28;20026;-84
2021/11/03 09:14:52;;;;;;;9.85;5.63;;;;;;;;;;4978654;28;20046;-84
2021/11/03 09:17:18;;;;;;;12.35;6.15;;;;;;;;;;4974128;28;20061;-85
2021/11/03 09:19:44;;;;;;;13.15;6.22;;;;;;;;;;4977515;28;20031;-85
2021/11/03 09:22:10;;;;;;;12.25;6.13;;;;;;;;;;4972083;28;20502;-85
2021/11/03 09:24:37;;;;;;;12.15;6.13;;;;;;;;;;4988559;28;20077;-85
2021/11/03 09:27:12;;;;;;;13.07;6.75;;;;;;;;;;4993006;28;20137;-85
2021/11/03 09:29:38;;;;;;;14.65;5.80;;;;;;;;;;4975661;28;20034;-83
2021/11/03 09:32:04;;;;;;;10.32;6.32;;;;;;;;;;4967434;28;20093;-84
2021/11/03 09:34:31;;;;;;;12.10;6.22;;;;;;;;;;4978061;28;20026;-83
2021/11/03 09:36:58;;;;;;;13.50;6.50;;;;;;;;;;4978036;28;20030;-85
2021/11/03 09:39:24;;;;;;;11.60;6.18;;;;;;;;;;4976456;28;20898;-85
2021/11/03 09:41:52;;;;;;;12.98;5.78;;;;;;;;;;4978281;28;20030;-85
2021/11/03 09:44:23;;;;;;;11.27;5.78;;;;;;;;;;4979957;28;20030;-83
2021/11/03 09:46:56;;;;;;;10.63;5.57;;;;;;;;;;4981323;28;20110;-85
2021/11/03 09:49:31;;;;;;;10.38;5.22;;;;;;;;;;4990661;28;20050;-85
2021/11/03 09:52:02;;;;;;;10.40;5.40;;;;;;;;;;4988141;28;20054;-85
2021/11/03 09:54:36;;;;;;;9.60;5.18;;;;;;;;;;4977248;28;20044;-85
2021/11/03 09:57:02;;;;;;;;;;;;;;;;;;4985272;28;20491;-83
2021/11/03 09:59:31;;;;;;;11.13;5.63;;;;;;;;;;4977225;28;19965;-82
2021/11/03 10:02:04;;;;;;;9.63;5.30;;;;;;;;;;4969929;28;20153;-85
2021/11/03 10:04:42;;;;;;;9.60;5.03;;;;;;;;;;4981380;28;20015;-83
2021/11/03 10:07:08;;;;;;;8.70;5.18;;;;;;;;;;4985384;28;20118;-85
2021/11/03 10:09:37;;;;;;;9.35;4.80;;;;;;;;;;4989329;28;20041;-85
2021/11/03 10:12:03;;;;;;;8.20;4.82;;;;;;;;;;4987468;28;20117;-84
2021/11/03 10:14:29;;;;;;;9.80;5.38;;;;;;;;;;4992513;28;20113;-83
2021/11/03 10:17:00;;;;;;;10.27;5.75;;;;;;;;;;4992268;28;20022;-85
2021/11/03 10:19:32;;;;;;;8.57;4.68;;;;;;;;;;4978004;28;20470;-86
2021/11/03 10:22:24;;;;;;;7.90;4.30;;;;;;;;;;4991428;28;20113;-85
2021/11/03 10:25:03;;;;;;;8.43;4.97;;;;;;;;;;4962194;28;20097;-85
2021/11/03 10:27:30;;;;;;;7.07;4.32;;;;;;;;;;4988808;28;20406;-86
2021/11/03 10:29:57;;;;;;;9.27;4.22;;;;;;;;;;4987536;28;20041;-84
2021/11/03 10:32:26;;;;;;;7.80;4.93;;;;;;;;;;4977070;28;20031;-87
2021/11/03 10:35:04;;;;;;;8.90;4.70;;;;;;;;;;4987946;28;20457;-84
2021/11/03 10:37:36;;;;;;;8.00;4.15;;;;;;;;;;4988771;28;20074;-86
2021/11/03 10:40:23;;;;;;;7.50;4.47;;;;;;;;;;4987219;28;20483;-84
2021/11/03 10:42:52;;;;;;;7.55;4.43;;;;;;;;;;4987117;28;20049;-86
2021/11/03 10:45:27;;;;;;;7.22;4.15;;;;;;;;;;4979134;28;20487;-86
2021/11/03 10:47:56;;;;;;;6.07;3.95;;;;;;;;;;4975145;28;20026;-86
2021/11/03 10:50:27;;;;;;;7.22;4.32;;;;;;;;;;4976169;28;20379;-84
2021/11/03 10:53:02;;;;;;;8.75;4.40;;;;;;;;;;4986157;28;20097;-85
2021/11/03 10:55:39;;;;;;;7.05;4.45;;;;;;;;;;4987332;28;20128;-84
2021/11/03 10:58:17;;;;;;;8.25;4.13;;;;;;;;;;4985790;28;20479;-86
2021/11/03 11:00:54;;;;;;;7.28;4.45;;;;;;;;;;4978763;28;20118;-87
2021/11/03 11:03:22;;;;;;;7.22;4.03;;;;;;;;;;4989562;28;20039;-87
2021/11/03 11:05:52;;;;;;;6.88;4.20;;;;;;;;;;4979628;28;20023;-84
2021/11/03 11:08:23;;;;;;;6.05;3.80;;;;;;;;;;4985739;28;20054;-84
2021/11/03 11:10:52;;;;;;;6.78;3.75;;;;;;;;;;4991195;28;20557;-86
2021/11/03 11:13:23;;;;;;;6.25;3.70;;;;;;;;;;4989130;28;20026;-87
2021/11/03 11:15:52;;;;;;;5.75;3.67;;;;;;;;;;4969164;28;20093;-87
2021/11/03 11:18:31;;;;;;;5.07;3.35;;;;;;;;;;4985133;28;20463;-86
2021/11/03 11:20:59;;;;;;;6.85;3.25;;;;;;;;;;4986377;28;20097;-87
2021/11/03 11:23:30;;;;;;;6.43;3.97;;;;;;;;;;4991052;28;20121;-84
2021/11/03 11:25:56;;;;;;;5.47;3.08;;;;;;;;;;4982219;28;20041;-86
2021/11/03 11:28:48;;;;;;;5.03;3.33;;;;;;;;;;4980518;28;20046;-86
2021/11/03 11:31:30;;;;;;;5.28;3.40;;;;;;;;;;4941510;28;20049;-86
2021/11/03 11:34:08;;;;;;;5.50;3.47;;;;;;;;;;4987596;28;20390;-86
2021/11/03 11:36:34;;;;;;;4.13;2.95;;;;;;;;;;4973121;28;20467;-85
2021/11/03 11:39:06;;;;;;;6.35;3.20;;;;;;;;;;4991957;28;20029;-86
2021/11/03 11:41:35;;;;;;;5.43;2.88;;;;;;;;;;4975364;28;20045;-83
2021/11/03 11:44:16;;;;;;;4.80;2.95;;;;;;;;;;4989738;28;20038;-83
2021/11/03 11:46:43;;;;;;;5.30;2.67;;;;;;;;;;4989531;28;20026;-85
2021/11/03 11:49:11;;;;;;;5.03;2.55;;;;;;;;;;4985190;28;20121;-85
2021/11/03 11:51:39;;;;;;;3.60;2.30;;;;;;;;;;4986495;28;20034;-85
2021/11/03 11:54:07;;;;;;;2.72;1.83;;;;;;;;;;4994508;28;20037;-86
2021/11/03 11:56:34;;;;;;;3.20;2.10;;;;;;;;;;4985820;28;20022;-86
2021/11/03 11:59:05;;;;;;;3.80;2.03;;;;;;;;;;4988345;28;20026;-85
2021/11/03 12:01:38;;;;;;;2.67;1.42;;;;;;;;;;4989089;28;20035;-84
2021/11/03 12:04:04;;;;;;;1.73;1.35;;;;;;;;;;4990507;28;20034;-84
2021/11/03 12:06:45;;;;;;;2.05;1.23;;;;;;;;;;4979641;28;20367;-84
2021/11/03 12:09:29;;;;;;;3.20;1.33;;;;;;;;;;4990647;28;20030;-85
2021/11/03 12:11:56;;;;;;;1.45;1.13;;;;;;;;;;4986003;28;20030;-85
2021/11/03 12:14:24;;;;;;;1.33;0.90;;;;;;;;;;4985844;28;20026;-86
2021/11/03 12:16:55;;;;;;;3.90;1.20;;;;;;;;;;4988562;28;20032;-86
2021/11/03 12:19:36;;;;;;;1.75;1.30;;;;;;;;;;4982695;28;20022;-85
2021/11/03 12:22:04;;;;;;;1.35;1.00;;;;;;;;;;4988501;28;20030;-85
2021/11/03 12:24:32;;;;;;;1.58;1.10;;;;;;;;;;4980792;28;20118;-85
2021/11/03 12:27:31;;;;;;;4.57;1.20;;;;;;;;;;4989409;28;20410;-86
2021/11/03 12:29:56;;;;;;;0.80;0.57;;;;;;;;;;4930634;28;20532;-85
2021/11/03 12:32:33;;;;;;;1.40;0.68;;;;;;;;;;4996952;28;20034;-85
2021/11/03 12:35:04;;;;;;;0.90;0.50;;;;;;;;;;4989432;28;20030;-85
2021/11/03 12:37:32;;;;;;;0.70;0.40;;;;;;;;;;4990122;28;20117;-85
2021/11/03 12:40:00;;;;;;;0.80;0.30;;;;;;;;;;4985566;28;20050;-85
2021/11/03 12:42:34;;;;;;;0.50;0.45;;;;;;;;;;4990522;28;20434;-84
2021/11/03 12:45:12;;;;;;;1.08;0.70;;;;;;;;;;4978274;28;20022;-84
2021/11/03 12:47:49;;;;;;;1.77;1.20;;;;;;;;;;4977940;28;20077;-84
2021/11/03 12:50:18;;;;;;;1.20;0.82;;;;;;;;;;4983695;28;20037;-85
2021/11/03 12:52:45;;;;;;;2.70;1.00;;;;;;;;;;4977468;28;20144;-85
2021/11/03 12:55:22;;;;;;;1.58;1.20;;;;;;;;;;4992812;28;20117;-85
2021/11/03 12:57:48;;;;;;;2.75;1.40;;;;;;;;;;4988652;28;20482;-86
2021/11/03 13:00:16;;;;;;;2.92;1.08;;;;;;;;;;4978458;28;20487;-84
2021/11/03 13:02:45;;;;;;;2.70;1.48;;;;;;;;;;4993902;28;20039;-86
2021/11/03 13:05:14;;;;;;;2.60;1.30;;;;;;;;;;4990773;28;20031;-85
2021/11/03 13:07:41;;;;;;;3.10;1.30;;;;;;;;;;4990816;28;20023;-84
2021/11/03 13:10:25;;;;;;;1.75;1.00;;;;;;;;;;4976736;28;20537;-85
2021/11/03 13:12:57;;;;;;;2.25;1.50;;;;;;;;;;4991626;28;20029;-86
2021/11/03 13:15:26;;;;;;;1.55;1.00;;;;;;;;;;4975491;28;20030;-85
2021/11/03 13:17:57;;;;;;;2.42;0.98;;;;;;;;;;4987005;28;20383;-84
2021/11/03 13:20:26;;;;;;;2.17;1.02;;;;;;;;;;4982736;28;20030;-86
2021/11/03 13:22:53;;;;;;;1.98;0.80;;;;;;;;;;4990767;28;20026;-85
2021/11/03 13:25:22;;;;;;;2.42;0.90;;;;;;;;;;4991773;28;20538;-85
2021/11/03 13:27:49;;;;;;;1.27;0.70;;;;;;;;;;4986069;28;20046;-85
2021/11/03 13:30:23;;;;;;;0.90;0.70;;;;;;;;;;4981736;28;20094;-86
2021/11/03 13:33:04;;;;;;;1.20;0.52;;;;;;;;;;4989580;28;20118;-85
2021/11/03 13:35:36;;;;;;;0.73;0.50;;;;;;;;;;4987801;28;20049;-85
2021/11/03 13:38:03;;;;;;;2.50;1.85;;;;;;;;;;4989148;28;20714;-86
2021/11/03 13:40:31;;;;;;;2.47;0.55;;;;;;;;;;4991661;28;20366;-84
2021/11/03 13:42:57;;;;;;;2.08;0.90;;;;;;;;;;4990143;28;20129;-84
2021/11/03 13:45:23;;;;;;;0.60;0.52;;;;;;;;;;4991647;28;20126;-87
2021/11/03 13:47:58;;;;;;;3.83;0.93;;;;;;;;;;4977924;28;20026;-87
2021/11/03 13:50:45;;;;;;;0.52;0.50;;;;;;;;;;4989337;28;20114;-86
2021/11/03 13:53:11;;;;;;;1.83;0.80;;;;;;;;;;4961694;28;20038;-86
2021/11/03 13:55:40;;;;;;;0.80;0.73;;;;;;;;;;4990655;28;20524;-85
2021/11/03 13:58:38;;;;;;;1.10;0.80;;;;;;;;;;4998612;28;20506;-86
2021/11/03 14:01:06;;;;;;;0.85;0.68;;;;;;;;;;4953614;28;20047;-86
2021/11/03 14:03:35;;;;;;;1.23;0.60;;;;;;;;;;4984590;28;20073;-85
2021/11/03 14:06:24;;;;;;;1.10;0.60;;;;;;;;;;4991504;28;20125;-86
2021/11/03 14:08:51;;;;;;;1.38;0.60;;;;;;;;;;4988750;28;20049;-85
2021/11/03 14:11:17;;;;;;;1.73;0.68;;;;;;;;;;4991963;28;20029;-84
2021/11/03 14:13:43;;;;;;;1.33;0.60;;;;;;;;;;4988886;28;20035;-85
2021/11/03 14:16:17;;;;;;;1.70;0.60;;;;;;;;;;4983050;28;20039;-84
2021/11/03 14:18:43;;;;;;;1.05;0.80;;;;;;;;;;4991202;28;20014;-85
2021/11/03 14:21:09;;;;;;;1.35;0.80;;;;;;;;;;4986554;28;20418;-84
2021/11/03 14:23:35;;;;;;;1.00;0.50;;;;;;;;;;4990762;28;20022;-86
2021/11/03 14:26:01;;;;;;;1.10;0.63;;;;;;;;;;4984850;28;20498;-86
2021/11/03 14:28:27;;;;;;;0.60;0.60;;;;;;;;;;4984460;28;20089;-85
2021/11/03 14:31:00;;;;;;;0.82;0.50;;;;;;;;;;4987290;28;20031;-84
2021/11/03 14:33:31;;;;;;;0.83;0.50;;;;;;;;;;4975241;28;20026;-83
2021/11/03 14:35:58;;;;;;;0.93;0.60;;;;;;;;;;4996394;28;20784;-84
2021/11/03 14:38:26;;;;;;;1.27;0.50;;;;;;;;;;4996099;28;20117;-85
2021/11/03 14:40:52;;;;;;;0.93;0.60;;;;;;;;;;4984183;28;20052;-84
2021/11/03 14:43:18;;;;;;;1.63;0.80;;;;;;;;;;4975365;28;20027;-85
2021/11/03 14:45:44;;;;;;;1.98;0.60;;;;;;;;;;4978168;28;20493;-85